sensor_id;sensor_type;location;lat;lon;timestamp;pressure;altitude;pressure_sealevel;temperature;humidity
20624;BME280;10471;42.736;23.346;2022-08-14T00:01:05;94994.47;;;17.52;100.00
20624;BME280;10471;42.736;23.346;2022-08-14T00:03:30;94997.91;;;17.53;100.00
20624;BME280;10471;42.736;23.346;2022-08-14T00:05:58;94983.94;;;17.56;100.00
20624;BME280;10471;42.736;23.346;2022-08-14T00:08:24;94985.66;;;17.60;100.00
20624;BME280;10471;42.736;23.346;2022-08-14T00:10:50;94975.28;;;17.59;100.00
20624;BME280;10471;42.736;23.346;2022-08-14T00:13:19;94978.63;;;17.56;100.00
20624;BME280;10471;42.736;23.346;2022-08-14T00:15:46;94980.00;;;17.41;100.00
20624;BME280;10471;42.736;23.346;2022-08-14T00:18:16;94980.78;;;17.42;100.00
20624;BME280;10471;42.736;23.346;2022-08-14T00:20:42;94974.66;;;17.41;100.00
20624;BME280;10471;42.736;23.346;2022-08-14T00:23:09;94971.38;;;17.44;100.00
20624;BME280;10471;42.736;23.346;2022-08-14T00:25:34;94967.13;;;17.43;100.00
20624;BME280;10471;42.736;23.346;2022-08-14T00:28:01;94967.91;;;17.44;100.00
20624;BME280;10471;42.736;23.346;2022-08-14T00:30:27;94970.25;;;17.45;100.00
20624;BME280;10471;42.736;23.346;2022-08-14T00:32:52;94972.25;;;17.48;100.00
20624;BME280;10471;42.736;23.346;2022-08-14T00:35:18;94981.81;;;17.49;100.00
20624;BME280;10471;42.736;23.346;2022-08-14T00:37:44;94980.25;;;17.48;100.00
20624;BME280;10471;42.736;23.346;2022-08-14T00:40:12;94983.38;;;17.50;100.00
20624;BME280;10471;42.736;23.346;2022-08-14T00:42:39;94986.50;;;17.52;100.00
20624;BME280;10471;42.736;23.346;2022-08-14T00:45:07;94975.38;;;17.50;100.00
20624;BME280;10471;42.736;23.346;2022-08-14T00:47:33;94972.69;;;17.50;100.00
20624;BME280;10471;42.736;23.346;2022-08-14T00:50:01;94971.94;;;17.50;100.00
20624;BME280;10471;42.736;23.346;2022-08-14T00:52:27;94968.03;;;17.47;100.00
20624;BME280;10471;42.736;23.346;2022-08-14T00:54:53;94966.47;;;17.46;100.00
20624;BME280;10471;42.736;23.346;2022-08-14T00:57:23;94959.47;;;17.42;100.00
20624;BME280;10471;42.736;23.346;2022-08-14T00:59:49;94962.44;;;17.40;100.00
20624;BME280;10471;42.736;23.346;2022-08-14T01:02:17;94962.91;;;17.42;100.00
20624;BME280;10471;42.736;23.346;2022-08-14T01:04:44;94952.59;;;17.41;100.00
20624;BME280;10471;42.736;23.346;2022-08-14T01:07:11;94944.94;;;17.39;100.00
20624;BME280;10471;42.736;23.346;2022-08-14T01:09:40;94944.94;;;17.39;100.00
20624;BME280;10471;42.736;23.346;2022-08-14T01:12:06;94944.94;;;17.39;100.00
20624;BME280;10471;42.736;23.346;2022-08-14T01:14:31;94941.13;;;17.40;100.00
20624;BME280;10471;42.736;23.346;2022-08-14T01:16:57;94947.13;;;17.37;100.00
20624;BME280;10471;42.736;23.346;2022-08-14T01:19:24;94942.34;;;17.31;100.00
20624;BME280;10471;42.736;23.346;2022-08-14T01:22:09;94946.88;;;17.30;100.00
20624;BME280;10471;42.736;23.346;2022-08-14T01:24:34;94933.13;;;17.28;100.00
20624;BME280;10471;42.736;23.346;2022-08-14T01:27:01;94934.97;;;17.28;100.00
20624;BME280;10471;42.736;23.346;2022-08-14T01:29:29;94934.22;;;17.27;100.00
20624;BME280;10471;42.736;23.346;2022-08-14T01:32:00;94934.66;;;17.29;100.00
20624;BME280;10471;42.736;23.346;2022-08-14T01:34:28;94933.56;;;17.30;100.00
20624;BME280;10471;42.736;23.346;2022-08-14T01:36:53;94932.44;;;17.31;100.00
20624;BME280;10471;42.736;23.346;2022-08-14T01:39:19;94931.34;;;17.32;100.00
20624;BME280;10471;42.736;23.346;2022-08-14T01:41:47;94932.13;;;17.33;100.00
20624;BME280;10471;42.736;23.346;2022-08-14T01:44:17;94930.88;;;17.30;100.00
20624;BME280;10471;42.736;23.346;2022-08-14T01:46:43;94924.78;;;17.30;100.00
20624;BME280;10471;42.736;23.346;2022-08-14T01:49:12;94928.34;;;17.34;100.00
20624;BME280;10471;42.736;23.346;2022-08-14T01:51:40;94931.47;;;17.36;100.00
20624;BME280;10471;42.736;23.346;2022-08-14T01:54:11;94927.38;;;17.38;100.00
20624;BME280;10471;42.736;23.346;2022-08-14T01:56:38;94932.03;;;17.41;100.00
20624;BME280;10471;42.736;23.346;2022-08-14T02:01:49;94929.63;;;17.48;100.00
20624;BME280;10471;42.736;23.346;2022-08-14T02:04:19;94930.84;;;17.51;100.00
20624;BME280;10471;42.736;23.346;2022-08-14T02:06:47;94933.19;;;17.52;100.00
20624;BME280;10471;42.736;23.346;2022-08-14T02:09:12;94932.09;;;17.53;100.00
20624;BME280;10471;42.736;23.346;2022-08-14T02:11:37;94930.19;;;17.54;100.00
20624;BME280;10471;42.736;23.346;2022-08-14T02:14:09;94930.19;;;17.54;100.00
20624;BME280;10471;42.736;23.346;2022-08-14T02:16:40;94930.06;;;17.50;100.00
20624;BME280;10471;42.736;23.346;2022-08-14T02:19:08;94923.44;;;17.56;100.00
20624;BME280;10471;42.736;23.346;2022-08-14T02:21:35;94917.59;;;17.63;100.00
20624;BME280;10471;42.736;23.346;2022-08-14T02:24:02;94919.78;;;17.61;100.00
20624;BME280;10471;42.736;23.346;2022-08-14T02:26:34;94912.69;;;17.65;100.00
20624;BME280;10471;42.736;23.346;2022-08-14T02:29:11;94923.47;;;17.68;100.00
20624;BME280;10471;42.736;23.346;2022-08-14T02:31:41;94914.78;;;17.71;100.00
20624;BME280;10471;42.736;23.346;2022-08-14T02:34:10;94917.03;;;17.69;100.00
20624;BME280;10471;42.736;23.346;2022-08-14T02:36:39;94918.59;;;17.70;100.00
20624;BME280;10471;42.736;23.346;2022-08-14T02:39:07;94903.03;;;17.72;100.00
20624;BME280;10471;42.736;23.346;2022-08-14T02:41:33;94905.69;;;17.72;100.00
20624;BME280;10471;42.736;23.346;2022-08-14T02:44:03;94910.25;;;17.72;100.00
20624;BME280;10471;42.736;23.346;2022-08-14T02:46:29;94915.72;;;17.75;100.00
20624;BME280;10471;42.736;23.346;2022-08-14T02:48:55;94915.38;;;17.76;100.00
20624;BME280;10471;42.736;23.346;2022-08-14T02:51:21;94919.72;;;17.81;100.00
20624;BME280;10471;42.736;23.346;2022-08-14T02:53:46;94916.38;;;17.84;100.00
20624;BME280;10471;42.736;23.346;2022-08-14T02:56:14;94914.50;;;17.84;100.00
20624;BME280;10471;42.736;23.346;2022-08-14T02:58:43;94916.47;;;17.75;100.00
20624;BME280;10471;42.736;23.346;2022-08-14T03:01:11;94917.25;;;17.76;100.00
20624;BME280;10471;42.736;23.346;2022-08-14T03:03:37;94908.59;;;17.79;100.00
20624;BME280;10471;42.736;23.346;2022-08-14T03:06:04;94916.59;;;17.79;100.00
20624;BME280;10471;42.736;23.346;2022-08-14T03:08:30;94915.63;;;17.83;100.00
20624;BME280;10471;42.736;23.346;2022-08-14T03:11:01;94913.84;;;17.87;100.00
20624;BME280;10471;42.736;23.346;2022-08-14T03:13:28;94906.63;;;17.88;100.00
20624;BME280;10471;42.736;23.346;2022-08-14T03:15:55;94921.59;;;17.80;100.00
20624;BME280;10471;42.736;23.346;2022-08-14T03:18:21;94916.28;;;17.80;100.00
20624;BME280;10471;42.736;23.346;2022-08-14T03:20:48;94917.84;;;17.81;100.00
20624;BME280;10471;42.736;23.346;2022-08-14T03:23:13;94909.25;;;17.76;100.00
20624;BME280;10471;42.736;23.346;2022-08-14T03:25:39;94914.41;;;17.81;100.00
20624;BME280;10471;42.736;23.346;2022-08-14T03:28:06;94915.72;;;17.75;100.00
20624;BME280;10471;42.736;23.346;2022-08-14T03:30:32;94923.47;;;17.68;100.00
20624;BME280;10471;42.736;23.346;2022-08-14T03:32:58;94927.91;;;17.64;100.00
20624;BME280;10471;42.736;23.346;2022-08-14T03:35:25;94938.91;;;17.63;100.00
20624;BME280;10471;42.736;23.346;2022-08-14T03:37:51;94941.44;;;17.59;100.00
20624;BME280;10471;42.736;23.346;2022-08-14T03:40:20;94934.06;;;17.44;100.00
20624;BME280;10471;42.736;23.346;2022-08-14T03:42:47;94936.31;;;17.54;100.00
20624;BME280;10471;42.736;23.346;2022-08-14T03:45:13;94930.31;;;17.57;100.00
20624;BME280;10471;42.736;23.346;2022-08-14T03:47:40;94934.34;;;17.63;100.00
20624;BME280;10471;42.736;23.346;2022-08-14T03:50:09;94938.09;;;17.62;100.00
20624;BME280;10471;42.736;23.346;2022-08-14T03:52:36;94934.34;;;17.63;100.00
20624;BME280;10471;42.736;23.346;2022-08-14T03:55:05;94936.13;;;17.71;100.00
20624;BME280;10471;42.736;23.346;2022-08-14T03:57:32;94937.69;;;17.72;100.00
20624;BME280;10471;42.736;23.346;2022-08-14T03:59:58;94937.81;;;17.75;100.00
20624;BME280;10471;42.736;23.346;2022-08-14T04:02:26;94934.94;;;17.80;100.00
20624;BME280;10471;42.736;23.346;2022-08-14T04:04:51;94946.19;;;17.86;100.00
20624;BME280;10471;42.736;23.346;2022-08-14T04:07:17;94939.50;;;17.92;100.00
20624;BME280;10471;42.736;23.346;2022-08-14T04:09:43;94941.94;;;17.97;100.00
20624;BME280;10471;42.736;23.346;2022-08-14T04:12:08;94937.84;;;17.99;100.00
20624;BME280;10471;42.736;23.346;2022-08-14T04:14:34;94940.31;;;18.04;100.00
20624;BME280;10471;42.736;23.346;2022-08-14T04:17:00;94938.88;;;18.07;100.00
20624;BME280;10471;42.736;23.346;2022-08-14T04:19:25;94935.75;;;18.05;100.00
20624;BME280;10471;42.736;23.346;2022-08-14T04:21:51;94936.53;;;18.05;100.00
20624;BME280;10471;42.736;23.346;2022-08-14T04:24:17;94934.44;;;18.11;100.00
20624;BME280;10471;42.736;23.346;2022-08-14T04:26:42;94932.00;;;18.06;100.00
20624;BME280;10471;42.736;23.346;2022-08-14T04:29:10;94929.88;;;18.11;100.00
20624;BME280;10471;42.736;23.346;2022-08-14T04:31:37;94935.78;;;18.17;100.00
20624;BME280;10471;42.736;23.346;2022-08-14T04:34:03;94936.88;;;18.16;100.00
20624;BME280;10471;42.736;23.346;2022-08-14T04:36:30;94931.97;;;18.18;100.00
20624;BME280;10471;42.736;23.346;2022-08-14T04:38:56;94932.81;;;18.18;100.00
20624;BME280;10471;42.736;23.346;2022-08-14T04:41:39;94931.56;;;18.16;100.00
20624;BME280;10471;42.736;23.346;2022-08-14T04:44:23;94934.56;;;18.14;100.00
20624;BME280;10471;42.736;23.346;2022-08-14T04:46:49;94931.44;;;18.12;100.00
20624;BME280;10471;42.736;23.346;2022-08-14T04:49:33;94940.41;;;18.08;100.00
20624;BME280;10471;42.736;23.346;2022-08-14T04:52:00;94939.78;;;18.11;100.00
20624;BME280;10471;42.736;23.346;2022-08-14T04:54:29;94942.56;;;18.14;100.00
20624;BME280;10471;42.736;23.346;2022-08-14T04:56:55;94936.09;;;18.15;100.00
20624;BME280;10471;42.736;23.346;2022-08-14T04:59:21;94941.56;;;18.19;100.00
20624;BME280;10471;42.736;23.346;2022-08-14T05:01:47;94949.81;;;18.26;100.00
20624;BME280;10471;42.736;23.346;2022-08-14T05:04:13;94946.03;;;18.27;100.00
20624;BME280;10471;42.736;23.346;2022-08-14T05:06:38;94941.25;;;18.32;100.00
20624;BME280;10471;42.736;23.346;2022-08-14T05:09:05;94941.47;;;18.39;100.00
20624;BME280;10471;42.736;23.346;2022-08-14T05:11:30;94944.59;;;18.41;100.00
20624;BME280;10471;42.736;23.346;2022-08-14T05:13:58;94944.69;;;18.44;100.00
20624;BME280;10471;42.736;23.346;2022-08-14T05:16:24;94951.38;;;18.50;100.00
20624;BME280;10471;42.736;23.346;2022-08-14T05:18:53;94937.38;;;18.53;100.00
20624;BME280;10471;42.736;23.346;2022-08-14T05:21:19;94938.13;;;18.54;100.00
20624;BME280;10471;42.736;23.346;2022-08-14T05:23:45;94948.69;;;18.50;100.00
20624;BME280;10471;42.736;23.346;2022-08-14T05:26:11;94941.69;;;18.46;100.00
20624;BME280;10471;42.736;23.346;2022-08-14T05:28:41;94942.25;;;18.51;100.00
20624;BME280;10471;42.736;23.346;2022-08-14T05:31:10;94949.50;;;18.51;100.00
20624;BME280;10471;42.736;23.346;2022-08-14T05:33:36;94944.25;;;18.54;100.00
20624;BME280;10471;42.736;23.346;2022-08-14T05:36:04;94935.94;;;18.56;100.00
20624;BME280;10471;42.736;23.346;2022-08-14T05:38:32;94943.38;;;18.62;100.00
20624;BME280;10471;42.736;23.346;2022-08-14T05:41:00;94940.88;;;18.69;100.00
20624;BME280;10471;42.736;23.346;2022-08-14T05:43:27;94944.47;;;18.73;100.00
20624;BME280;10471;42.736;23.346;2022-08-14T05:45:53;94943.78;;;18.76;100.00
20624;BME280;10471;42.736;23.346;2022-08-14T05:48:18;94941.81;;;18.73;100.00
20624;BME280;10471;42.736;23.346;2022-08-14T05:50:44;94946.56;;;18.80;100.00
20624;BME280;10471;42.736;23.346;2022-08-14T05:53:09;94948.69;;;18.74;100.00
20624;BME280;10471;42.736;23.346;2022-08-14T05:55:35;94949.47;;;18.75;100.00
20624;BME280;10471;42.736;23.346;2022-08-14T05:58:07;94944.00;;;18.83;100.00
20624;BME280;10471;42.736;23.346;2022-08-14T06:00:41;94952.03;;;18.83;100.00
20624;BME280;10471;42.736;23.346;2022-08-14T06:03:11;94942.22;;;18.87;100.00
20624;BME280;10471;42.736;23.346;2022-08-14T06:05:39;94954.34;;;18.85;100.00
20624;BME280;10471;42.736;23.346;2022-08-14T06:08:12;94951.34;;;18.86;100.00
20624;BME280;10471;42.736;23.346;2022-08-14T06:10:39;94945.41;;;18.93;100.00
20624;BME280;10471;42.736;23.346;2022-08-14T06:13:04;94953.47;;;18.81;100.00
20624;BME280;10471;42.736;23.346;2022-08-14T06:15:29;94951.78;;;18.88;100.00
20624;BME280;10471;42.736;23.346;2022-08-14T06:17:55;94960.56;;;18.89;100.00
20624;BME280;10471;42.736;23.346;2022-08-14T06:20:21;94958.00;;;18.92;100.00
20624;BME280;10471;42.736;23.346;2022-08-14T06:22:47;94961.56;;;18.96;100.00
20624;BME280;10471;42.736;23.346;2022-08-14T06:25:14;94968.81;;;18.96;100.00
20624;BME280;10471;42.736;23.346;2022-08-14T06:27:47;94969.81;;;18.91;100.00
20624;BME280;10471;42.736;23.346;2022-08-14T06:30:19;94973.38;;;18.83;100.00
20624;BME280;10471;42.736;23.346;2022-08-14T06:32:46;94972.59;;;18.83;100.00
20624;BME280;10471;42.736;23.346;2022-08-14T06:35:13;94974.94;;;18.84;100.00
20624;BME280;10471;42.736;23.346;2022-08-14T06:37:54;94978.38;;;18.73;100.00
20624;BME280;10471;42.736;23.346;2022-08-14T06:40:29;94983.41;;;18.74;100.00
20624;BME280;10471;42.736;23.346;2022-08-14T06:42:57;94987.19;;;18.73;100.00
20624;BME280;10471;42.736;23.346;2022-08-14T06:45:23;94977.63;;;18.72;100.00
20624;BME280;10471;42.736;23.346;2022-08-14T06:47:48;94990.97;;;18.72;100.00
20624;BME280;10471;42.736;23.346;2022-08-14T06:50:16;94975.19;;;18.67;100.00
20624;BME280;10471;42.736;23.346;2022-08-14T06:52:43;94974.38;;;18.67;100.00
20624;BME280;10471;42.736;23.346;2022-08-14T06:55:10;94980.75;;;18.62;100.00
20624;BME280;10471;42.736;23.346;2022-08-14T06:57:39;94975.75;;;18.61;100.00
20624;BME280;10471;42.736;23.346;2022-08-14T07:00:09;94966.50;;;18.58;100.00
20624;BME280;10471;42.736;23.346;2022-08-14T07:02:35;94966.28;;;18.51;100.00
20624;BME280;10471;42.736;23.346;2022-08-14T07:05:19;94964.50;;;18.55;100.00
20624;BME280;10471;42.736;23.346;2022-08-14T07:08:04;94969.38;;;18.65;100.00
20624;BME280;10471;42.736;23.346;2022-08-14T07:10:30;94963.16;;;18.73;100.00
20624;BME280;10471;42.736;23.346;2022-08-14T07:12:56;94965.38;;;18.83;100.00
20624;BME280;10471;42.736;23.346;2022-08-14T07:15:22;94966.25;;;18.87;100.00
20624;BME280;10471;42.736;23.346;2022-08-14T07:17:50;94970.72;;;18.95;100.00
20624;BME280;10471;42.736;23.346;2022-08-14T07:20:16;94968.56;;;19.01;100.00
20624;BME280;10471;42.736;23.346;2022-08-14T07:22:47;94967.22;;;19.07;100.00
20624;BME280;10471;42.736;23.346;2022-08-14T07:25:13;94976.38;;;19.17;100.00
20624;BME280;10471;42.736;23.346;2022-08-14T07:27:40;94979.91;;;19.21;100.00
20624;BME280;10471;42.736;23.346;2022-08-14T07:30:06;94974.84;;;19.32;100.00
20624;BME280;10471;42.736;23.346;2022-08-14T07:32:31;94973.16;;;19.39;100.00
20624;BME280;10471;42.736;23.346;2022-08-14T07:34:57;94973.25;;;19.43;100.00
20624;BME280;10471;42.736;23.346;2022-08-14T07:37:22;94978.56;;;19.55;100.00
20624;BME280;10471;42.736;23.346;2022-08-14T07:39:48;94976.66;;;19.55;100.00
20624;BME280;10471;42.736;23.346;2022-08-14T07:42:13;94985.00;;;19.66;100.00
20624;BME280;10471;42.736;23.346;2022-08-14T07:44:39;94984.66;;;19.67;100.00
20624;BME280;10471;42.736;23.346;2022-08-14T07:47:04;94986.31;;;19.72;100.00
20624;BME280;10471;42.736;23.346;2022-08-14T07:49:31;94984.25;;;19.80;100.00
20624;BME280;10471;42.736;23.346;2022-08-14T07:51:58;94982.88;;;19.98;100.00
20624;BME280;10471;42.736;23.346;2022-08-14T07:54:24;94993.56;;;19.98;100.00
20624;BME280;10471;42.736;23.346;2022-08-14T07:56:50;95000.84;;;20.13;100.00
20624;BME280;10471;42.736;23.346;2022-08-14T07:59:15;95011.09;;;19.96;100.00
20624;BME280;10471;42.736;23.346;2022-08-14T08:01:42;95015.06;;;20.02;100.00
20624;BME280;10471;42.736;23.346;2022-08-14T08:04:09;95007.28;;;19.97;100.00
20624;BME280;10471;42.736;23.346;2022-08-14T08:06:35;95004.03;;;20.03;100.00
20624;BME280;10471;42.736;23.346;2022-08-14T08:09:02;95010.50;;;20.02;100.00
20624;BME280;10471;42.736;23.346;2022-08-14T08:11:33;95000.75;;;20.10;100.00
20624;BME280;10471;42.736;23.346;2022-08-14T08:14:05;95002.88;;;20.04;100.00
20624;BME280;10471;42.736;23.346;2022-08-14T08:16:32;94990.00;;;19.94;100.00
20624;BME280;10471;42.736;23.346;2022-08-14T08:18:58;94995.41;;;20.10;100.00
20624;BME280;10471;42.736;23.346;2022-08-14T08:21:23;94998.34;;;20.20;100.00
20624;BME280;10471;42.736;23.346;2022-08-14T08:23:48;94996.34;;;20.17;100.00
20624;BME280;10471;42.736;23.346;2022-08-14T08:26:14;94994.28;;;20.26;100.00
20624;BME280;10471;42.736;23.346;2022-08-14T08:28:40;94985.13;;;20.27;100.00
20624;BME280;10471;42.736;23.346;2022-08-14T08:31:06;94983.47;;;20.07;100.00
20624;BME280;10471;42.736;23.346;2022-08-14T08:33:33;94985.03;;;20.08;100.00
20624;BME280;10471;42.736;23.346;2022-08-14T08:36:03;94987.97;;;20.19;100.00
20624;BME280;10471;42.736;23.346;2022-08-14T08:38:30;94984.44;;;20.30;100.00
20624;BME280;10471;42.736;23.346;2022-08-14T08:40:57;94986.44;;;20.33;100.00
20624;BME280;10471;42.736;23.346;2022-08-14T08:43:26;94981.75;;;20.30;100.00
20624;BME280;10471;42.736;23.346;2022-08-14T08:46:03;94982.56;;;20.31;100.00
20624;BME280;10471;42.736;23.346;2022-08-14T08:48:42;94986.38;;;20.45;100.00
20624;BME280;10471;42.736;23.346;2022-08-14T08:51:09;94981.59;;;20.39;100.00
20624;BME280;10471;42.736;23.346;2022-08-14T08:53:43;94986.25;;;20.26;100.00
20624;BME280;10471;42.736;23.346;2022-08-14T08:56:08;94981.44;;;20.32;100.00
20624;BME280;10471;42.736;23.346;2022-08-14T08:58:36;94986.78;;;20.47;100.00
20624;BME280;10471;42.736;23.346;2022-08-14T09:01:02;94983.25;;;20.74;100.00
20624;BME280;10471;42.736;23.346;2022-08-14T09:03:28;94983.50;;;21.18;100.00
20624;BME280;10471;42.736;23.346;2022-08-14T09:05:59;94979.31;;;21.36;100.00
20624;BME280;10471;42.736;23.346;2022-08-14T09:08:32;94975.69;;;21.63;100.00
20624;BME280;10471;42.736;23.346;2022-08-14T09:11:04;94976.38;;;21.79;100.00
20624;BME280;10471;42.736;23.346;2022-08-14T09:13:31;94969.81;;;21.58;100.00
20624;BME280;10471;42.736;23.346;2022-08-14T09:15:56;94969.03;;;21.57;100.00
20624;BME280;10471;42.736;23.346;2022-08-14T09:18:22;94966.81;;;21.44;100.00
20624;BME280;10471;42.736;23.346;2022-08-14T09:20:50;94962.66;;;21.46;100.00
20624;BME280;10471;42.736;23.346;2022-08-14T09:23:16;94965.97;;;21.40;100.00
20624;BME280;10471;42.736;23.346;2022-08-14T09:25:44;94966.22;;;21.69;100.00
20624;BME280;10471;42.736;23.346;2022-08-14T09:28:11;94967.75;;;21.70;100.00
20624;BME280;10471;42.736;23.346;2022-08-14T09:30:40;94957.59;;;21.79;100.00
20624;BME280;10471;42.736;23.346;2022-08-14T09:36:24;94959.25;;;22.06;100.00
20624;BME280;10471;42.736;23.346;2022-08-14T09:46:59;94981.81;;;22.24;100.00
20624;BME280;10471;42.736;23.346;2022-08-14T09:49:35;94981.88;;;22.05;100.00
20624;BME280;10471;42.736;23.346;2022-08-14T09:54:42;94970.81;;;22.29;98.27
20624;BME280;10471;42.736;23.346;2022-08-14T09:57:24;94972.13;;;22.60;94.18
20624;BME280;10471;42.736;23.346;2022-08-14T09:59:50;94969.09;;;22.88;94.95
20624;BME280;10471;42.736;23.346;2022-08-14T10:02:36;94959.88;;;23.40;92.84
20624;BME280;10471;42.736;23.346;2022-08-14T10:05:08;94959.88;;;23.40;81.06
20624;BME280;10471;42.736;23.346;2022-08-14T10:07:48;94953.75;;;23.14;83.07
20624;BME280;10471;42.736;23.346;2022-08-14T10:10:33;94945.13;;;23.31;85.25
20624;BME280;10471;42.736;23.346;2022-08-14T10:13:07;94949.31;;;23.58;82.34
20624;BME280;10471;42.736;23.346;2022-08-14T10:15:45;94949.31;;;23.28;81.96
20624;BME280;10471;42.736;23.346;2022-08-14T10:18:12;94952.31;;;23.20;80.99
20624;BME280;10471;42.736;23.346;2022-08-14T10:20:43;94956.69;;;23.31;83.40
20624;BME280;10471;42.736;23.346;2022-08-14T10:23:16;94946.69;;;23.32;81.70
20624;BME280;10471;42.736;23.346;2022-08-14T10:25:46;94949.28;;;23.54;81.00
20624;BME280;10471;42.736;23.346;2022-08-14T10:28:15;94944.84;;;23.69;78.86
20624;BME280;10471;42.736;23.346;2022-08-14T10:30:44;94936.28;;;23.60;77.17
20624;BME280;10471;42.736;23.346;2022-08-14T10:33:26;94933.06;;;23.77;74.76
20624;BME280;10471;42.736;23.346;2022-08-14T10:35:51;94923.81;;;24.14;76.51
20624;BME280;10471;42.736;23.346;2022-08-14T10:38:32;94925.28;;;24.44;73.18
20624;BME280;10471;42.736;23.346;2022-08-14T10:41:15;94919.88;;;24.04;72.75
20624;BME280;10471;42.736;23.346;2022-08-14T10:43:43;94912.13;;;23.99;75.17
20624;BME280;10471;42.736;23.346;2022-08-14T10:46:16;94906.56;;;24.22;74.27
20624;BME280;10471;42.736;23.346;2022-08-14T10:48:59;94904.75;;;24.36;73.38
20624;BME280;10471;42.736;23.346;2022-08-14T10:51:28;94907.09;;;24.34;71.32
20624;BME280;10471;42.736;23.346;2022-08-14T10:53:54;94900.97;;;24.01;71.36
20624;BME280;10471;42.736;23.346;2022-08-14T10:56:28;94892.00;;;23.86;71.41
20624;BME280;10471;42.736;23.346;2022-08-14T10:59:05;94893.97;;;23.57;72.59
20624;BME280;10471;42.736;23.346;2022-08-14T11:01:34;94890.06;;;23.54;75.14
20624;BME280;10471;42.736;23.346;2022-08-14T11:04:00;94888.59;;;23.60;73.41
20624;BME280;10471;42.736;23.346;2022-08-14T11:06:27;94892.84;;;23.61;73.48
20624;BME280;10471;42.736;23.346;2022-08-14T11:08:53;94887.19;;;23.70;74.42
20624;BME280;10471;42.736;23.346;2022-08-14T11:11:19;94884.06;;;24.00;70.61
20624;BME280;10471;42.736;23.346;2022-08-14T11:13:45;94869.91;;;24.10;69.95
20624;BME280;10471;42.736;23.346;2022-08-14T11:16:13;94875.59;;;24.45;71.82
20624;BME280;10471;42.736;23.346;2022-08-14T11:18:44;94880.44;;;24.26;66.00
20624;BME280;10471;42.736;23.346;2022-08-14T11:21:15;94878.81;;;24.61;66.95
20624;BME280;10471;42.736;23.346;2022-08-14T11:23:43;94869.63;;;24.69;65.05
20624;BME280;10471;42.736;23.346;2022-08-14T11:26:11;94867.47;;;24.95;66.57
20624;BME280;10471;42.736;23.346;2022-08-14T11:28:41;94866.44;;;25.13;62.78
20624;BME280;10471;42.736;23.346;2022-08-14T11:31:11;94869.13;;;25.13;62.56
20624;BME280;10471;42.736;23.346;2022-08-14T11:33:38;94863.81;;;25.34;64.09
20624;BME280;10471;42.736;23.346;2022-08-14T11:36:07;94867.69;;;25.30;64.83
20624;BME280;10471;42.736;23.346;2022-08-14T11:38:42;94865.31;;;25.21;60.35
20624;BME280;10471;42.736;23.346;2022-08-14T11:41:09;94867.94;;;25.08;59.62
20624;BME280;10471;42.736;23.346;2022-08-14T11:43:42;94867.28;;;25.28;62.00
20624;BME280;10471;42.736;23.346;2022-08-14T11:46:08;94871.63;;;25.53;61.14
20624;BME280;10471;42.736;23.346;2022-08-14T11:48:47;94872.47;;;25.75;60.85
20624;BME280;10471;42.736;23.346;2022-08-14T11:51:15;94877.19;;;26.19;61.97
20624;BME280;10471;42.736;23.346;2022-08-14T11:53:42;94871.78;;;26.30;56.78
20624;BME280;10471;42.736;23.346;2022-08-14T11:56:13;94866.41;;;26.44;58.14
20624;BME280;10471;42.736;23.346;2022-08-14T11:58:39;94867.56;;;26.53;58.64
20624;BME280;10471;42.736;23.346;2022-08-14T12:01:06;94865.59;;;26.85;58.92
20624;BME280;10471;42.736;23.346;2022-08-14T12:03:39;94864.78;;;27.05;57.63
20624;BME280;10471;42.736;23.346;2022-08-14T12:06:07;94859.75;;;27.14;55.57
20624;BME280;10471;42.736;23.346;2022-08-14T12:08:34;94860.91;;;27.13;58.80
20624;BME280;10471;42.736;23.346;2022-08-14T12:11:00;94859.31;;;27.22;57.91
20624;BME280;10471;42.736;23.346;2022-08-14T12:13:28;94861.31;;;27.01;54.25
20624;BME280;10471;42.736;23.346;2022-08-14T12:16:03;94862.41;;;27.24;55.26
20624;BME280;10471;42.736;23.346;2022-08-14T12:18:31;94845.00;;;27.32;54.10
20624;BME280;10471;42.736;23.346;2022-08-14T12:20:57;94852.34;;;27.28;54.84
20624;BME280;10471;42.736;23.346;2022-08-14T12:23:24;94849.28;;;27.16;55.79
20624;BME280;10471;42.736;23.346;2022-08-14T12:26:01;94846.59;;;27.16;55.80
20624;BME280;10471;42.736;23.346;2022-08-14T12:28:27;94842.72;;;27.24;55.08
20624;BME280;10471;42.736;23.346;2022-08-14T12:30:52;94833.75;;;27.37;54.94
20624;BME280;10471;42.736;23.346;2022-08-14T12:33:26;94840.03;;;27.14;53.34
20624;BME280;10471;42.736;23.346;2022-08-14T12:35:57;94839.28;;;27.06;53.32
20624;BME280;10471;42.736;23.346;2022-08-14T12:38:39;94827.63;;;27.23;52.77
20624;BME280;10471;42.736;23.346;2022-08-14T12:41:15;94825.38;;;26.90;53.10
20624;BME280;10471;42.736;23.346;2022-08-14T12:43:46;94824.22;;;26.84;54.47
20624;BME280;10471;42.736;23.346;2022-08-14T12:48:53;94835.47;;;26.69;55.22
20624;BME280;10471;42.736;23.346;2022-08-14T12:51:22;94830.09;;;26.51;55.77
20624;BME280;10471;42.736;23.346;2022-08-14T12:53:51;94835.50;;;26.38;57.24
20624;BME280;10471;42.736;23.346;2022-08-14T12:56:18;94827.78;;;26.40;57.46
20624;BME280;10471;42.736;23.346;2022-08-14T12:58:52;94824.69;;;26.31;57.50
20624;BME280;10471;42.736;23.346;2022-08-14T13:01:19;94816.94;;;26.12;59.57
20624;BME280;10471;42.736;23.346;2022-08-14T13:03:46;94810.78;;;26.08;59.78
20624;BME280;10471;42.736;23.346;2022-08-14T13:06:13;94813.88;;;26.06;61.68
20624;BME280;10471;42.736;23.346;2022-08-14T13:08:38;94806.53;;;26.10;60.11